<?xml version="1.0" encoding="utf-8"?>
<gpx xmlns:xsi="http://www.w3.org/2001/XMLSchema-instance" xmlns:xsd="http://www.w3.org/2001/XMLSchema" version="1.1" creator="Shapelink.com" xmlns="http://www.topografix.com/GPX/1/1" xmlns:gpxtpx="http://www.garmin.com/xmlschemas/TrackPointExtension/v1">
  <metadata>
    <name>Övrigt 2.45 km, 2019-04-28</name>
    <desc></desc>
    <author><name>Marian Moron</name></author> 
    <time>2019-04-28T20:27:17Z</time>
  </metadata>
  <trk>
    <name>Övrigt 2.45 km, 2019-04-28</name>
    <trkseg>
      <trkpt lat="51.229809360816" lon="4.458014852171">
        <ele>11.2</ele>
        <time>2019-04-28T20:27:17Z</time>
      </trkpt>
      <trkpt lat="51.229884295002" lon="4.457886022368">
        <ele>0</ele>
        <time>2019-04-28T20:27:44Z</time>
      </trkpt>
      <trkpt lat="51.229854120162" lon="4.457174063782">
        <ele>0.6</ele>
        <time>2019-04-28T20:28:23Z</time>
      </trkpt>
      <trkpt lat="51.229724619807" lon="4.456794782807">
        <ele>4.6</ele>
        <time>2019-04-28T20:28:46Z</time>
      </trkpt>
      <trkpt lat="51.229826292254" lon="4.456669473402">
        <ele>8.2</ele>
        <time>2019-04-28T20:29:00Z</time>
      </trkpt>
      <trkpt lat="51.22992469576" lon="4.456605854781">
        <ele>12</ele>
        <time>2019-04-28T20:29:19Z</time>
      </trkpt>
      <trkpt lat="51.230387628097" lon="4.456619684916">
        <ele>14.8</ele>
        <time>2019-04-28T20:29:58Z</time>
      </trkpt>
      <trkpt lat="51.23048041573" lon="4.456578026873">
        <ele>15</ele>
        <time>2019-04-28T20:30:32Z</time>
      </trkpt>
      <trkpt lat="51.230890793554" lon="4.456371999771">
        <ele>18.8</ele>
        <time>2019-04-28T20:31:17Z</time>
      </trkpt>
      <trkpt lat="51.230901522386" lon="4.456330257909">
        <ele>21.4</ele>
        <time>2019-04-28T20:32:16Z</time>
      </trkpt>
      <trkpt lat="51.23096488955" lon="4.45626311889">
        <ele>21.8</ele>
        <time>2019-04-28T20:32:21Z</time>
      </trkpt>
      <trkpt lat="51.231007553421" lon="4.45605860053">
        <ele>23.4</ele>
        <time>2019-04-28T20:32:33Z</time>
      </trkpt>
      <trkpt lat="51.231095395733" lon="4.455937314437">
        <ele>20</ele>
        <time>2019-04-28T20:32:53Z</time>
      </trkpt>
      <trkpt lat="51.231186590805" lon="4.456045021852">
        <ele>18.2</ele>
        <time>2019-04-28T20:33:06Z</time>
      </trkpt>
      <trkpt lat="51.231308044536" lon="4.455991042416">
        <ele>18.4</ele>
        <time>2019-04-28T20:33:21Z</time>
      </trkpt>
      <trkpt lat="51.23143930509" lon="4.456051727372">
        <ele>8.6</ele>
        <time>2019-04-28T20:33:57Z</time>
      </trkpt>
      <trkpt lat="51.231610463488" lon="4.456247612375">
        <ele>2.6</ele>
        <time>2019-04-28T20:34:16Z</time>
      </trkpt>
      <trkpt lat="51.23183325439" lon="4.456655307991">
        <ele>9.2</ele>
        <time>2019-04-28T20:34:42Z</time>
      </trkpt>
      <trkpt lat="51.232219492342" lon="4.456897712539">
        <ele>4</ele>
        <time>2019-04-28T20:35:17Z</time>
      </trkpt>
      <trkpt lat="51.232267520629" lon="4.456793860798">
        <ele>1.8</ele>
        <time>2019-04-28T20:35:22Z</time>
      </trkpt>
      <trkpt lat="51.232262659127" lon="4.456577104864">
        <ele>0</ele>
        <time>2019-04-28T20:35:36Z</time>
      </trkpt>
      <trkpt lat="51.232125447424" lon="4.455916359687">
        <ele>0</ele>
        <time>2019-04-28T20:36:20Z</time>
      </trkpt>
      <trkpt lat="51.232119160999" lon="4.455893560919">
        <ele>0</ele>
        <time>2019-04-28T20:36:22Z</time>
      </trkpt>
      <trkpt lat="51.232082029182" lon="4.455667501076">
        <ele>0</ele>
        <time>2019-04-28T20:36:48Z</time>
      </trkpt>
      <trkpt lat="51.232063169907" lon="4.455552501408">
        <ele>0</ele>
        <time>2019-04-28T20:36:59Z</time>
      </trkpt>
      <trkpt lat="51.231998796915" lon="4.455138184091">
        <ele>0</ele>
        <time>2019-04-28T20:37:23Z</time>
      </trkpt>
      <trkpt lat="51.231972729206" lon="4.455001894397">
        <ele>0</ele>
        <time>2019-04-28T20:37:42Z</time>
      </trkpt>
      <trkpt lat="51.23188606036" lon="4.4544685541">
        <ele>0</ele>
        <time>2019-04-28T20:38:12Z</time>
      </trkpt>
      <trkpt lat="51.231855382606" lon="4.454261185894">
        <ele>0</ele>
        <time>2019-04-28T20:38:50Z</time>
      </trkpt>
      <trkpt lat="51.231827051784" lon="4.454113496816">
        <ele>0</ele>
        <time>2019-04-28T20:39:08Z</time>
      </trkpt>
      <trkpt lat="51.231803582464" lon="4.454018529889">
        <ele>0</ele>
        <time>2019-04-28T20:39:23Z</time>
      </trkpt>
      <trkpt lat="51.23176368462" lon="4.453628184806">
        <ele>0</ele>
        <time>2019-04-28T20:39:46Z</time>
      </trkpt>
      <trkpt lat="51.231721272206" lon="4.453325682035">
        <ele>0</ele>
        <time>2019-04-28T20:40:05Z</time>
      </trkpt>
      <trkpt lat="51.231607865099" lon="4.452876160738">
        <ele>0</ele>
        <time>2019-04-28T20:40:40Z</time>
      </trkpt>
      <trkpt lat="51.231548437428" lon="4.452581872229">
        <ele>0</ele>
        <time>2019-04-28T20:40:57Z</time>
      </trkpt>
      <trkpt lat="51.231540390804" lon="4.452541387652">
        <ele>0</ele>
        <time>2019-04-28T20:41:05Z</time>
      </trkpt>
      <trkpt lat="51.231419859082" lon="4.451841750459">
        <ele>0</ele>
        <time>2019-04-28T20:41:44Z</time>
      </trkpt>
      <trkpt lat="51.231394964839" lon="4.451761787133">
        <ele>0</ele>
        <time>2019-04-28T20:41:52Z</time>
      </trkpt>
      <trkpt lat="51.231341488317" lon="4.451454003765">
        <ele>0</ele>
        <time>2019-04-28T20:42:17Z</time>
      </trkpt>
      <trkpt lat="51.231324975974" lon="4.451332466215">
        <ele>0</ele>
        <time>2019-04-28T20:42:28Z</time>
      </trkpt>
      <trkpt lat="51.231293711487" lon="4.451201373299">
        <ele>0</ele>
        <time>2019-04-28T20:42:36Z</time>
      </trkpt>
      <trkpt lat="51.231290610184" lon="4.451117302842">
        <ele>0</ele>
        <time>2019-04-28T20:42:41Z</time>
      </trkpt>
      <trkpt lat="51.231265967398" lon="4.450989730324">
        <ele>0</ele>
        <time>2019-04-28T20:42:48Z</time>
      </trkpt>
      <trkpt lat="51.231252891634" lon="4.450920328192">
        <ele>0</ele>
        <time>2019-04-28T20:42:52Z</time>
      </trkpt>
      <trkpt lat="51.231240570241" lon="4.450841538332">
        <ele>0</ele>
        <time>2019-04-28T20:43:03Z</time>
      </trkpt>
      <trkpt lat="51.23121802293" lon="4.450693178702">
        <ele>0</ele>
        <time>2019-04-28T20:43:10Z</time>
      </trkpt>
      <trkpt lat="51.231206204451" lon="4.450631655556">
        <ele>0</ele>
        <time>2019-04-28T20:43:14Z</time>
      </trkpt>
      <trkpt lat="51.23114007126" lon="4.450538616466">
        <ele>0</ele>
        <time>2019-04-28T20:43:26Z</time>
      </trkpt>
      <trkpt lat="51.230973019993" lon="4.450593098816">
        <ele>0</ele>
        <time>2019-04-28T20:43:48Z</time>
      </trkpt>
      <trkpt lat="51.230512015493" lon="4.450651185383">
        <ele>3.4</ele>
        <time>2019-04-28T20:44:22Z</time>
      </trkpt>
      <trkpt lat="51.230084957688" lon="4.450898283795">
        <ele>0</ele>
        <time>2019-04-28T20:45:36Z</time>
      </trkpt>
      <trkpt lat="51.230064924947" lon="4.450907755342">
        <ele>0</ele>
        <time>2019-04-28T20:45:38Z</time>
      </trkpt>
      <trkpt lat="51.229821766028" lon="4.450992412532">
        <ele>0.8</ele>
        <time>2019-04-28T20:46:14Z</time>
      </trkpt>
      <trkpt lat="51.229373502016" lon="4.451150495166">
        <ele>0</ele>
        <time>2019-04-28T20:46:53Z</time>
      </trkpt>
      <trkpt lat="51.228939990148" lon="4.45129600495">
        <ele>0</ele>
        <time>2019-04-28T20:47:45Z</time>
      </trkpt>
      <trkpt lat="51.228901014313" lon="4.451331544206">
        <ele>0</ele>
        <time>2019-04-28T20:47:52Z</time>
      </trkpt>
      <trkpt lat="51.228443362573" lon="4.45136976567">
        <ele>0</ele>
        <time>2019-04-28T20:48:31Z</time>
      </trkpt>
      <trkpt lat="51.228006581764" lon="4.451587946527">
        <ele>0</ele>
        <time>2019-04-28T20:49:08Z</time>
      </trkpt>
      <trkpt lat="51.22756099996" lon="4.451735887062">
        <ele>0</ele>
        <time>2019-04-28T20:49:45Z</time>
      </trkpt>
      <trkpt lat="51.227112233034" lon="4.451862202295">
        <ele>0</ele>
        <time>2019-04-28T20:50:20Z</time>
      </trkpt>
      <trkpt lat="51.226961861748" lon="4.451973346289">
        <ele>0</ele>
        <time>2019-04-28T20:50:36Z</time>
      </trkpt>
      <trkpt lat="51.22694660669" lon="4.452130506914">
        <ele>0</ele>
        <time>2019-04-28T20:50:49Z</time>
      </trkpt>
      <trkpt lat="51.226939482075" lon="4.452860654223">
        <ele>0</ele>
        <time>2019-04-28T20:51:28Z</time>
      </trkpt>
      <trkpt lat="51.226917856773" lon="4.453578899234">
        <ele>0</ele>
        <time>2019-04-28T20:52:09Z</time>
      </trkpt>
      <trkpt lat="51.226912492357" lon="4.454177785989">
        <ele>2.6</ele>
        <time>2019-04-28T20:52:39Z</time>
      </trkpt>
      <trkpt lat="51.226964124861" lon="4.454415831949">
        <ele>0</ele>
        <time>2019-04-28T20:52:56Z</time>
      </trkpt>
      <trkpt lat="51.22677393955" lon="4.45476443517">
        <ele>15.2</ele>
        <time>2019-04-28T20:53:32Z</time>
      </trkpt>
      <trkpt lat="51.226736388638" lon="4.455007426451">
        <ele>21.8</ele>
        <time>2019-04-28T20:53:48Z</time>
      </trkpt>
      <trkpt lat="51.226772514627" lon="4.455729946231">
        <ele>6.8</ele>
        <time>2019-04-28T20:54:23Z</time>
      </trkpt>
      <trkpt lat="51.226749380583" lon="4.456175528035">
        <ele>0</ele>
        <time>2019-04-28T20:54:45Z</time>
      </trkpt>
      <trkpt lat="51.226730605127" lon="4.456366383898">
        <ele>0</ele>
        <time>2019-04-28T20:54:55Z</time>
      </trkpt>
      <trkpt lat="51.226714176603" lon="4.456553803182">
        <ele>0</ele>
        <time>2019-04-28T20:55:12Z</time>
      </trkpt>
      <trkpt lat="51.226746027823" lon="4.456898634548">
        <ele>0</ele>
        <time>2019-04-28T20:56:23Z</time>
      </trkpt>
      <trkpt lat="51.226764635641" lon="4.456986141584">
        <ele>0</ele>
        <time>2019-04-28T20:56:29Z</time>
      </trkpt>
      <trkpt lat="51.22678986516" lon="4.457308006544">
        <ele>0</ele>
        <time>2019-04-28T20:57:19Z</time>
      </trkpt>
      <trkpt lat="51.226857004179" lon="4.457568767453">
        <ele>0</ele>
        <time>2019-04-28T20:57:31Z</time>
      </trkpt>
      <trkpt lat="51.226952222563" lon="4.457834892778">
        <ele>4.8</ele>
        <time>2019-04-28T20:57:56Z</time>
      </trkpt>
      <trkpt lat="51.227235195507" lon="4.457819386263">
        <ele>14.2</ele>
        <time>2019-04-28T20:58:26Z</time>
      </trkpt>
      <trkpt lat="51.227428901216" lon="4.457662728552">
        <ele>17.4</ele>
        <time>2019-04-28T20:58:39Z</time>
      </trkpt>
      <trkpt lat="51.227516743528" lon="4.457655268661">
        <ele>20.6</ele>
        <time>2019-04-28T20:58:58Z</time>
      </trkpt>
      <trkpt lat="51.227680106759" lon="4.457589386927">
        <ele>21.2</ele>
        <time>2019-04-28T20:59:25Z</time>
      </trkpt>
      <trkpt lat="51.228117725758" lon="4.457369613509">
        <ele>16.4</ele>
        <time>2019-04-28T21:00:07Z</time>
      </trkpt>
      <trkpt lat="51.22846037783" lon="4.456975496571">
        <ele>6.2</ele>
        <time>2019-04-28T21:00:42Z</time>
      </trkpt>
      <trkpt lat="51.228606641985" lon="4.457051939499">
        <ele>6.2</ele>
        <time>2019-04-28T21:01:04Z</time>
      </trkpt>
      <trkpt lat="51.228708062975" lon="4.457079683588">
        <ele>8.8</ele>
        <time>2019-04-28T21:01:13Z</time>
      </trkpt>
      <trkpt lat="51.229148280363" lon="4.456923025877">
        <ele>12</ele>
        <time>2019-04-28T21:01:51Z</time>
      </trkpt>
      <trkpt lat="51.229433851696" lon="4.456849516614">
        <ele>12.2</ele>
        <time>2019-04-28T21:02:20Z</time>
      </trkpt>
      <trkpt lat="51.229873063256" lon="4.456685734288">
        <ele>16</ele>
        <time>2019-04-28T21:02:57Z</time>
      </trkpt>
      <trkpt lat="51.230323087467" lon="4.456530836776">
        <ele>9.2</ele>
        <time>2019-04-28T21:03:40Z</time>
      </trkpt>
      <trkpt lat="51.230421574792" lon="4.456592276103">
        <ele>1.8</ele>
        <time>2019-04-28T21:04:00Z</time>
      </trkpt>
      <trkpt lat="51.229963839233" lon="4.456715322395">
        <ele>0</ele>
        <time>2019-04-28T21:04:36Z</time>
      </trkpt>
      <trkpt lat="51.229812881214" lon="4.457156797068">
        <ele>0</ele>
        <time>2019-04-28T21:05:08Z</time>
      </trkpt>
      <trkpt lat="51.22989368273" lon="4.457853752053">
        <ele>0</ele>
        <time>2019-04-28T21:06:38Z</time>
      </trkpt>
      <trkpt lat="51.229775414121" lon="4.457968919359">
        <ele>0</ele>
        <time>2019-04-28T21:07:12Z</time>
      </trkpt>
      <trkpt lat="51.229724535988" lon="4.457997166362">
        <ele>0</ele>
        <time>2019-04-28T21:07:20Z</time>
      </trkpt>
    </trkseg>
  </trk>
</gpx>